sensor_id;sensor_type;location;lat;lon;timestamp;temperature;humidity
44509;DHT22;30214;52.246;14.408;2022-09-13T00:01:30;11.70;99.90
44509;DHT22;30214;52.246;14.408;2022-09-13T00:03:57;11.70;99.90
44509;DHT22;30214;52.246;14.408;2022-09-13T00:06:24;11.70;99.90
44509;DHT22;30214;52.246;14.408;2022-09-13T00:08:51;11.60;99.90
44509;DHT22;30214;52.246;14.408;2022-09-13T00:11:21;11.50;99.90
44509;DHT22;30214;52.246;14.408;2022-09-13T00:13:52;11.40;99.90
44509;DHT22;30214;52.246;14.408;2022-09-13T00:16:22;11.40;99.90
44509;DHT22;30214;52.246;14.408;2022-09-13T00:18:51;11.40;99.90
44509;DHT22;30214;52.246;14.408;2022-09-13T00:21:21;11.50;99.90
44509;DHT22;30214;52.246;14.408;2022-09-13T00:23:51;11.40;99.90
44509;DHT22;30214;52.246;14.408;2022-09-13T00:26:19;11.40;99.90
44509;DHT22;30214;52.246;14.408;2022-09-13T00:28:51;11.40;99.90
44509;DHT22;30214;52.246;14.408;2022-09-13T00:31:21;11.30;99.90
44509;DHT22;30214;52.246;14.408;2022-09-13T00:33:49;11.20;99.90
44509;DHT22;30214;52.246;14.408;2022-09-13T00:36:17;11.20;99.90
44509;DHT22;30214;52.246;14.408;2022-09-13T00:38:44;11.10;99.90
44509;DHT22;30214;52.246;14.408;2022-09-13T00:41:14;11.10;99.90
44509;DHT22;30214;52.246;14.408;2022-09-13T00:43:45;11.00;99.90
44509;DHT22;30214;52.246;14.408;2022-09-13T00:46:20;11.00;99.90
44509;DHT22;30214;52.246;14.408;2022-09-13T00:48:54;11.00;99.90
44509;DHT22;30214;52.246;14.408;2022-09-13T00:51:24;11.00;99.90
44509;DHT22;30214;52.246;14.408;2022-09-13T00:53:53;10.90;99.90
44509;DHT22;30214;52.246;14.408;2022-09-13T00:56:27;10.80;99.90
44509;DHT22;30214;52.246;14.408;2022-09-13T00:58:59;10.80;99.90
44509;DHT22;30214;52.246;14.408;2022-09-13T01:01:32;10.90;99.90
44509;DHT22;30214;52.246;14.408;2022-09-13T01:04:02;10.90;99.90
44509;DHT22;30214;52.246;14.408;2022-09-13T01:06:33;10.70;99.90
44509;DHT22;30214;52.246;14.408;2022-09-13T01:09:02;10.70;99.90
44509;DHT22;30214;52.246;14.408;2022-09-13T01:11:37;10.70;99.90
44509;DHT22;30214;52.246;14.408;2022-09-13T01:14:08;10.70;99.90
44509;DHT22;30214;52.246;14.408;2022-09-13T01:16:37;10.80;99.90
44509;DHT22;30214;52.246;14.408;2022-09-13T01:19:04;10.80;99.90
44509;DHT22;30214;52.246;14.408;2022-09-13T01:24:54;10.70;99.90
44509;DHT22;30214;52.246;14.408;2022-09-13T01:27:55;10.70;99.90
44509;DHT22;30214;52.246;14.408;2022-09-13T01:30:37;10.80;99.90
44509;DHT22;30214;52.246;14.408;2022-09-13T01:33:37;10.80;99.90
44509;DHT22;30214;52.246;14.408;2022-09-13T01:36:28;10.80;99.90
44509;DHT22;30214;52.246;14.408;2022-09-13T01:39:04;10.80;99.90
44509;DHT22;30214;52.246;14.408;2022-09-13T01:41:47;10.90;99.90
44509;DHT22;30214;52.246;14.408;2022-09-13T01:44:38;10.90;99.90
44509;DHT22;30214;52.246;14.408;2022-09-13T01:47:22;10.90;99.90
44509;DHT22;30214;52.246;14.408;2022-09-13T01:50:03;10.80;99.90
44509;DHT22;30214;52.246;14.408;2022-09-13T01:52:43;10.80;99.90
44509;DHT22;30214;52.246;14.408;2022-09-13T01:55:20;10.70;99.90
44509;DHT22;30214;52.246;14.408;2022-09-13T01:57:54;10.80;99.90
44509;DHT22;30214;52.246;14.408;2022-09-13T02:00:25;10.80;99.90
44509;DHT22;30214;52.246;14.408;2022-09-13T02:03:02;10.70;99.90
44509;DHT22;30214;52.246;14.408;2022-09-13T02:05:36;10.60;99.90
44509;DHT22;30214;52.246;14.408;2022-09-13T02:08:09;10.70;99.90
44509;DHT22;30214;52.246;14.408;2022-09-13T02:10:43;10.70;99.90
44509;DHT22;30214;52.246;14.408;2022-09-13T02:13:15;10.60;99.90
44509;DHT22;30214;52.246;14.408;2022-09-13T02:15:45;10.60;99.90
44509;DHT22;30214;52.246;14.408;2022-09-13T02:18:18;10.50;99.90
44509;DHT22;30214;52.246;14.408;2022-09-13T02:20:51;10.50;99.90
44509;DHT22;30214;52.246;14.408;2022-09-13T02:23:22;10.40;99.90
44509;DHT22;30214;52.246;14.408;2022-09-13T02:25:53;10.40;99.90
44509;DHT22;30214;52.246;14.408;2022-09-13T02:31:07;10.20;99.90
44509;DHT22;30214;52.246;14.408;2022-09-13T02:33:39;10.10;99.90
44509;DHT22;30214;52.246;14.408;2022-09-13T02:36:13;10.10;99.90
44509;DHT22;30214;52.246;14.408;2022-09-13T02:38:46;10.20;99.90
44509;DHT22;30214;52.246;14.408;2022-09-13T02:41:20;10.20;99.90
44509;DHT22;30214;52.246;14.408;2022-09-13T02:43:58;10.20;99.90
44509;DHT22;30214;52.246;14.408;2022-09-13T02:46:45;10.00;99.90
44509;DHT22;30214;52.246;14.408;2022-09-13T02:49:24;9.80;99.90
44509;DHT22;30214;52.246;14.408;2022-09-13T02:51:55;9.80;99.90
44509;DHT22;30214;52.246;14.408;2022-09-13T02:54:28;9.90;99.90
44509;DHT22;30214;52.246;14.408;2022-09-13T02:57:00;9.90;99.90
44509;DHT22;30214;52.246;14.408;2022-09-13T02:59:31;9.90;99.90
44509;DHT22;30214;52.246;14.408;2022-09-13T03:04:42;9.90;99.90
44509;DHT22;30214;52.246;14.408;2022-09-13T03:07:10;10.00;99.90
44509;DHT22;30214;52.246;14.408;2022-09-13T03:09:43;10.00;99.90
44509;DHT22;30214;52.246;14.408;2022-09-13T03:12:26;10.10;99.90
44509;DHT22;30214;52.246;14.408;2022-09-13T03:15:09;10.20;99.90
44509;DHT22;30214;52.246;14.408;2022-09-13T03:17:51;10.20;99.90
44509;DHT22;30214;52.246;14.408;2022-09-13T03:20:27;10.10;99.90
44509;DHT22;30214;52.246;14.408;2022-09-13T03:28:21;10.30;99.90
44509;DHT22;30214;52.246;14.408;2022-09-13T03:30:55;10.20;99.90
44509;DHT22;30214;52.246;14.408;2022-09-13T03:33:30;10.10;99.90
44509;DHT22;30214;52.246;14.408;2022-09-13T03:36:05;10.00;99.90
44509;DHT22;30214;52.246;14.408;2022-09-13T03:38:38;10.10;99.90
44509;DHT22;30214;52.246;14.408;2022-09-13T03:41:10;10.10;99.90
44509;DHT22;30214;52.246;14.408;2022-09-13T03:43:43;10.20;99.90
44509;DHT22;30214;52.246;14.408;2022-09-13T03:46:16;10.00;99.90
44509;DHT22;30214;52.246;14.408;2022-09-13T03:48:46;9.70;99.90
44509;DHT22;30214;52.246;14.408;2022-09-13T03:51:16;9.70;99.90
44509;DHT22;30214;52.246;14.408;2022-09-13T03:53:47;9.70;99.90
44509;DHT22;30214;52.246;14.408;2022-09-13T03:56:18;9.60;99.90
44509;DHT22;30214;52.246;14.408;2022-09-13T03:58:46;9.70;99.90
44509;DHT22;30214;52.246;14.408;2022-09-13T04:01:17;9.70;99.90
44509;DHT22;30214;52.246;14.408;2022-09-13T04:03:45;9.80;99.90
44509;DHT22;30214;52.246;14.408;2022-09-13T04:06:12;9.80;99.90
44509;DHT22;30214;52.246;14.408;2022-09-13T04:08:41;9.80;99.90
44509;DHT22;30214;52.246;14.408;2022-09-13T04:11:09;9.90;99.90
44509;DHT22;30214;52.246;14.408;2022-09-13T04:13:36;10.00;99.90
44509;DHT22;30214;52.246;14.408;2022-09-13T04:16:05;10.00;99.90
44509;DHT22;30214;52.246;14.408;2022-09-13T04:18:33;10.00;99.90
44509;DHT22;30214;52.246;14.408;2022-09-13T04:21:01;10.00;99.90
44509;DHT22;30214;52.246;14.408;2022-09-13T04:23:29;10.00;99.90
44509;DHT22;30214;52.246;14.408;2022-09-13T04:26:02;9.90;99.90
44509;DHT22;30214;52.246;14.408;2022-09-13T04:28:30;9.80;99.90
44509;DHT22;30214;52.246;14.408;2022-09-13T04:30:57;9.70;99.90
44509;DHT22;30214;52.246;14.408;2022-09-13T04:33:24;9.70;99.90
44509;DHT22;30214;52.246;14.408;2022-09-13T04:35:56;9.70;99.90
44509;DHT22;30214;52.246;14.408;2022-09-13T04:38:24;9.80;99.90
44509;DHT22;30214;52.246;14.408;2022-09-13T04:40:52;9.80;99.90
44509;DHT22;30214;52.246;14.408;2022-09-13T04:43:23;9.90;99.90
44509;DHT22;30214;52.246;14.408;2022-09-13T04:45:50;9.90;99.90
44509;DHT22;30214;52.246;14.408;2022-09-13T04:48:18;10.00;99.90
44509;DHT22;30214;52.246;14.408;2022-09-13T04:50:45;10.00;99.90
44509;DHT22;30214;52.246;14.408;2022-09-13T04:53:13;10.00;99.90
44509;DHT22;30214;52.246;14.408;2022-09-13T04:55:41;9.90;99.90
44509;DHT22;30214;52.246;14.408;2022-09-13T04:58:09;9.90;99.90
44509;DHT22;30214;52.246;14.408;2022-09-13T05:00:38;9.80;99.90
44509;DHT22;30214;52.246;14.408;2022-09-13T05:03:05;9.80;99.90
44509;DHT22;30214;52.246;14.408;2022-09-13T05:05:33;9.90;99.90
44509;DHT22;30214;52.246;14.408;2022-09-13T05:08:00;10.00;99.90
44509;DHT22;30214;52.246;14.408;2022-09-13T05:10:28;10.00;99.90
44509;DHT22;30214;52.246;14.408;2022-09-13T05:12:55;10.10;99.90
44509;DHT22;30214;52.246;14.408;2022-09-13T05:15:22;10.10;99.90
44509;DHT22;30214;52.246;14.408;2022-09-13T05:17:51;10.30;99.90
44509;DHT22;30214;52.246;14.408;2022-09-13T05:20:18;10.40;99.90
44509;DHT22;30214;52.246;14.408;2022-09-13T05:22:46;10.40;99.90
44509;DHT22;30214;52.246;14.408;2022-09-13T05:25:15;10.50;99.90
44509;DHT22;30214;52.246;14.408;2022-09-13T05:27:44;10.50;99.90
44509;DHT22;30214;52.246;14.408;2022-09-13T05:30:12;10.70;99.90
44509;DHT22;30214;52.246;14.408;2022-09-13T05:32:39;10.70;99.90
44509;DHT22;30214;52.246;14.408;2022-09-13T05:35:08;10.70;99.90
44509;DHT22;30214;52.246;14.408;2022-09-13T05:37:35;10.70;99.90
44509;DHT22;30214;52.246;14.408;2022-09-13T05:40:02;10.80;99.90
44509;DHT22;30214;52.246;14.408;2022-09-13T05:42:30;10.80;99.90
44509;DHT22;30214;52.246;14.408;2022-09-13T05:44:57;10.90;99.90
44509;DHT22;30214;52.246;14.408;2022-09-13T05:47:24;11.00;99.90
44509;DHT22;30214;52.246;14.408;2022-09-13T05:49:51;11.20;99.90
44509;DHT22;30214;52.246;14.408;2022-09-13T05:52:20;11.30;99.90
44509;DHT22;30214;52.246;14.408;2022-09-13T05:54:47;11.30;99.90
44509;DHT22;30214;52.246;14.408;2022-09-13T05:57:14;11.30;99.90
44509;DHT22;30214;52.246;14.408;2022-09-13T05:59:41;11.30;99.90
44509;DHT22;30214;52.246;14.408;2022-09-13T06:02:09;11.40;99.90
44509;DHT22;30214;52.246;14.408;2022-09-13T06:04:36;11.60;99.90
44509;DHT22;30214;52.246;14.408;2022-09-13T06:07:03;11.70;99.90
44509;DHT22;30214;52.246;14.408;2022-09-13T06:09:31;11.90;99.90
44509;DHT22;30214;52.246;14.408;2022-09-13T06:11:58;12.10;99.90
44509;DHT22;30214;52.246;14.408;2022-09-13T06:14:25;12.20;99.90
44509;DHT22;30214;52.246;14.408;2022-09-13T06:16:52;12.20;99.90
44509;DHT22;30214;52.246;14.408;2022-09-13T06:19:20;12.30;99.90
44509;DHT22;30214;52.246;14.408;2022-09-13T06:21:47;12.40;99.90
44509;DHT22;30214;52.246;14.408;2022-09-13T06:24:14;12.50;99.90
44509;DHT22;30214;52.246;14.408;2022-09-13T06:26:44;12.70;99.90
44509;DHT22;30214;52.246;14.408;2022-09-13T06:29:11;12.90;99.90
44509;DHT22;30214;52.246;14.408;2022-09-13T06:31:38;13.10;99.90
44509;DHT22;30214;52.246;14.408;2022-09-13T06:34:10;13.40;99.90
44509;DHT22;30214;52.246;14.408;2022-09-13T06:36:38;13.50;99.90
44509;DHT22;30214;52.246;14.408;2022-09-13T06:39:06;13.60;99.90
44509;DHT22;30214;52.246;14.408;2022-09-13T06:41:34;13.70;99.90
44509;DHT22;30214;52.246;14.408;2022-09-13T06:44:03;13.70;99.90
44509;DHT22;30214;52.246;14.408;2022-09-13T06:46:32;13.80;99.90
44509;DHT22;30214;52.246;14.408;2022-09-13T06:49:01;13.80;99.90
44509;DHT22;30214;52.246;14.408;2022-09-13T06:51:30;13.80;99.90
44509;DHT22;30214;52.246;14.408;2022-09-13T06:53:58;13.80;99.90
44509;DHT22;30214;52.246;14.408;2022-09-13T06:56:27;13.80;99.90
44509;DHT22;30214;52.246;14.408;2022-09-13T06:58:57;13.80;99.90
44509;DHT22;30214;52.246;14.408;2022-09-13T07:01:28;13.80;99.90
44509;DHT22;30214;52.246;14.408;2022-09-13T07:03:58;13.80;99.90
44509;DHT22;30214;52.246;14.408;2022-09-13T07:06:29;13.80;99.90
44509;DHT22;30214;52.246;14.408;2022-09-13T07:08:59;13.80;99.90
44509;DHT22;30214;52.246;14.408;2022-09-13T07:11:32;13.80;99.90
44509;DHT22;30214;52.246;14.408;2022-09-13T07:14:00;13.80;99.90
44509;DHT22;30214;52.246;14.408;2022-09-13T07:16:29;13.90;99.90
44509;DHT22;30214;52.246;14.408;2022-09-13T07:18:59;13.90;99.90
44509;DHT22;30214;52.246;14.408;2022-09-13T07:21:27;13.90;99.90
44509;DHT22;30214;52.246;14.408;2022-09-13T07:23:55;13.90;99.90
44509;DHT22;30214;52.246;14.408;2022-09-13T07:26:23;14.00;99.90
44509;DHT22;30214;52.246;14.408;2022-09-13T07:28:54;14.00;99.90
44509;DHT22;30214;52.246;14.408;2022-09-13T07:31:24;14.00;99.90
44509;DHT22;30214;52.246;14.408;2022-09-13T07:33:56;14.00;99.90
44509;DHT22;30214;52.246;14.408;2022-09-13T07:36:24;13.90;99.90
44509;DHT22;30214;52.246;14.408;2022-09-13T07:38:52;13.90;99.90
44509;DHT22;30214;52.246;14.408;2022-09-13T07:41:20;14.00;99.90
44509;DHT22;30214;52.246;14.408;2022-09-13T07:43:49;14.00;99.90
44509;DHT22;30214;52.246;14.408;2022-09-13T07:46:18;14.00;99.90
44509;DHT22;30214;52.246;14.408;2022-09-13T07:48:48;14.00;99.90
44509;DHT22;30214;52.246;14.408;2022-09-13T07:51:18;14.10;99.90
44509;DHT22;30214;52.246;14.408;2022-09-13T07:53:48;14.20;99.90
44509;DHT22;30214;52.246;14.408;2022-09-13T07:56:17;14.30;99.90
44509;DHT22;30214;52.246;14.408;2022-09-13T07:58:46;14.30;99.90
44509;DHT22;30214;52.246;14.408;2022-09-13T08:01:16;14.40;99.90
44509;DHT22;30214;52.246;14.408;2022-09-13T08:03:49;14.50;99.90
44509;DHT22;30214;52.246;14.408;2022-09-13T08:06:18;14.50;99.90
44509;DHT22;30214;52.246;14.408;2022-09-13T08:08:45;14.60;99.90
44509;DHT22;30214;52.246;14.408;2022-09-13T08:11:15;14.70;99.90
44509;DHT22;30214;52.246;14.408;2022-09-13T08:13:44;14.70;99.90
44509;DHT22;30214;52.246;14.408;2022-09-13T08:16:12;14.70;99.90
44509;DHT22;30214;52.246;14.408;2022-09-13T08:18:42;14.70;99.90
44509;DHT22;30214;52.246;14.408;2022-09-13T08:21:11;14.90;99.90
44509;DHT22;30214;52.246;14.408;2022-09-13T08:23:40;15.00;99.90
44509;DHT22;30214;52.246;14.408;2022-09-13T08:26:08;15.10;99.90
44509;DHT22;30214;52.246;14.408;2022-09-13T08:28:36;15.00;99.90
44509;DHT22;30214;52.246;14.408;2022-09-13T08:31:06;15.00;99.90
44509;DHT22;30214;52.246;14.408;2022-09-13T08:33:34;15.00;99.90
44509;DHT22;30214;52.246;14.408;2022-09-13T08:36:03;15.10;99.90
44509;DHT22;30214;52.246;14.408;2022-09-13T08:38:30;15.20;99.90
44509;DHT22;30214;52.246;14.408;2022-09-13T08:41:02;15.30;99.90
44509;DHT22;30214;52.246;14.408;2022-09-13T08:43:46;15.40;99.90
44509;DHT22;30214;52.246;14.408;2022-09-13T08:46:22;15.50;99.90
44509;DHT22;30214;52.246;14.408;2022-09-13T08:48:53;15.40;99.90
44509;DHT22;30214;52.246;14.408;2022-09-13T08:51:31;15.50;99.90
44509;DHT22;30214;52.246;14.408;2022-09-13T08:54:02;15.50;99.90
44509;DHT22;30214;52.246;14.408;2022-09-13T08:56:38;15.60;99.90
44509;DHT22;30214;52.246;14.408;2022-09-13T08:59:35;15.60;99.90
44509;DHT22;30214;52.246;14.408;2022-09-13T09:02:23;15.70;99.90
44509;DHT22;30214;52.246;14.408;2022-09-13T09:05:02;15.70;99.90
44509;DHT22;30214;52.246;14.408;2022-09-13T09:07:31;15.80;99.90
44509;DHT22;30214;52.246;14.408;2022-09-13T09:10:01;15.80;99.90
44509;DHT22;30214;52.246;14.408;2022-09-13T09:12:40;15.80;99.90
44509;DHT22;30214;52.246;14.408;2022-09-13T09:15:14;16.00;99.90
44509;DHT22;30214;52.246;14.408;2022-09-13T09:17:49;16.00;99.90
44509;DHT22;30214;52.246;14.408;2022-09-13T09:20:26;16.10;99.90
44509;DHT22;30214;52.246;14.408;2022-09-13T09:22:59;16.20;99.90
44509;DHT22;30214;52.246;14.408;2022-09-13T09:25:30;16.30;99.90
44509;DHT22;30214;52.246;14.408;2022-09-13T09:27:59;16.30;99.90
44509;DHT22;30214;52.246;14.408;2022-09-13T09:30:35;16.40;99.90
44509;DHT22;30214;52.246;14.408;2022-09-13T09:33:21;16.60;99.90
44509;DHT22;30214;52.246;14.408;2022-09-13T09:35:59;16.80;99.90
44509;DHT22;30214;52.246;14.408;2022-09-13T09:38:35;16.80;99.90
44509;DHT22;30214;52.246;14.408;2022-09-13T09:41:10;16.90;99.90
44509;DHT22;30214;52.246;14.408;2022-09-13T09:43:45;16.90;99.90
44509;DHT22;30214;52.246;14.408;2022-09-13T09:46:14;17.00;99.90
44509;DHT22;30214;52.246;14.408;2022-09-13T09:48:47;17.20;99.90
44509;DHT22;30214;52.246;14.408;2022-09-13T09:51:18;17.50;99.90
44509;DHT22;30214;52.246;14.408;2022-09-13T09:53:48;17.80;99.90
44509;DHT22;30214;52.246;14.408;2022-09-13T09:56:23;18.10;99.90
44509;DHT22;30214;52.246;14.408;2022-09-13T09:58:53;18.30;99.90
44509;DHT22;30214;52.246;14.408;2022-09-13T10:01:25;18.40;99.90
44509;DHT22;30214;52.246;14.408;2022-09-13T10:04:00;18.30;99.90
44509;DHT22;30214;52.246;14.408;2022-09-13T10:06:30;18.30;99.90
44509;DHT22;30214;52.246;14.408;2022-09-13T10:08:59;18.40;99.90
44509;DHT22;30214;52.246;14.408;2022-09-13T10:11:38;18.60;99.90
44509;DHT22;30214;52.246;14.408;2022-09-13T10:14:27;18.60;99.90
44509;DHT22;30214;52.246;14.408;2022-09-13T10:17:13;18.70;99.90
44509;DHT22;30214;52.246;14.408;2022-09-13T10:19:54;18.90;99.90
44509;DHT22;30214;52.246;14.408;2022-09-13T10:22:24;18.90;99.90
44509;DHT22;30214;52.246;14.408;2022-09-13T10:24:51;18.90;99.90
44509;DHT22;30214;52.246;14.408;2022-09-13T10:27:26;18.90;99.90
44509;DHT22;30214;52.246;14.408;2022-09-13T10:29:58;19.00;99.90
44509;DHT22;30214;52.246;14.408;2022-09-13T10:32:28;19.10;99.90
44509;DHT22;30214;52.246;14.408;2022-09-13T10:35:01;19.20;99.90
44509;DHT22;30214;52.246;14.408;2022-09-13T10:37:33;19.40;99.90
44509;DHT22;30214;52.246;14.408;2022-09-13T10:40:04;19.50;99.90
44509;DHT22;30214;52.246;14.408;2022-09-13T10:42:34;19.70;99.90
44509;DHT22;30214;52.246;14.408;2022-09-13T10:45:05;19.80;99.90
44509;DHT22;30214;52.246;14.408;2022-09-13T10:47:38;19.90;99.90
44509;DHT22;30214;52.246;14.408;2022-09-13T10:50:19;20.20;99.90
44509;DHT22;30214;52.246;14.408;2022-09-13T10:52:49;20.40;99.90
44509;DHT22;30214;52.246;14.408;2022-09-13T10:55:29;20.50;99.90
44509;DHT22;30214;52.246;14.408;2022-09-13T10:58:18;20.40;99.90
44509;DHT22;30214;52.246;14.408;2022-09-13T11:01:11;20.40;99.90
44509;DHT22;30214;52.246;14.408;2022-09-13T11:07:22;20.40;99.90
44509;DHT22;30214;52.246;14.408;2022-09-13T11:10:00;20.40;99.90
44509;DHT22;30214;52.246;14.408;2022-09-13T11:12:36;20.50;99.90
44509;DHT22;30214;52.246;14.408;2022-09-13T11:15:18;20.70;99.90
44509;DHT22;30214;52.246;14.408;2022-09-13T11:18:08;20.80;99.90
44509;DHT22;30214;52.246;14.408;2022-09-13T11:21:05;20.90;99.90
44509;DHT22;30214;52.246;14.408;2022-09-13T11:23:53;21.00;99.90
44509;DHT22;30214;52.246;14.408;2022-09-13T11:26:38;21.20;99.90
44509;DHT22;30214;52.246;14.408;2022-09-13T11:29:25;21.50;99.90
44509;DHT22;30214;52.246;14.408;2022-09-13T11:32:05;21.70;99.90
44509;DHT22;30214;52.246;14.408;2022-09-13T11:34:44;21.70;99.90
44509;DHT22;30214;52.246;14.408;2022-09-13T11:37:37;21.60;99.90
44509;DHT22;30214;52.246;14.408;2022-09-13T11:40:27;21.60;99.90
44509;DHT22;30214;52.246;14.408;2022-09-13T11:43:08;21.60;99.90
44509;DHT22;30214;52.246;14.408;2022-09-13T11:45:53;21.40;99.90
44509;DHT22;30214;52.246;14.408;2022-09-13T11:48:41;21.10;99.90
44509;DHT22;30214;52.246;14.408;2022-09-13T11:51:37;20.90;99.90
44509;DHT22;30214;52.246;14.408;2022-09-13T11:54:19;20.90;99.90
44509;DHT22;30214;52.246;14.408;2022-09-13T11:56:54;20.90;99.90
44509;DHT22;30214;52.246;14.408;2022-09-13T11:59:34;20.80;99.90
44509;DHT22;30214;52.246;14.408;2022-09-13T12:02:13;20.80;99.90
44509;DHT22;30214;52.246;14.408;2022-09-13T12:04:49;20.90;99.90
44509;DHT22;30214;52.246;14.408;2022-09-13T12:07:27;20.80;99.90
44509;DHT22;30214;52.246;14.408;2022-09-13T12:10:02;20.80;99.90
44509;DHT22;30214;52.246;14.408;2022-09-13T12:12:34;20.80;99.90
44509;DHT22;30214;52.246;14.408;2022-09-13T12:15:05;20.80;99.90
44509;DHT22;30214;52.246;14.408;2022-09-13T12:17:40;20.60;99.90
44509;DHT22;30214;52.246;14.408;2022-09-13T12:20:15;20.50;99.90
44509;DHT22;30214;52.246;14.408;2022-09-13T12:22:49;20.50;99.90
44509;DHT22;30214;52.246;14.408;2022-09-13T12:25:23;20.40;99.90
44509;DHT22;30214;52.246;14.408;2022-09-13T12:27:56;20.50;99.90
44509;DHT22;30214;52.246;14.408;2022-09-13T12:30:38;20.50;99.90
44509;DHT22;30214;52.246;14.408;2022-09-13T12:33:10;20.50;99.90
44509;DHT22;30214;52.246;14.408;2022-09-13T12:38:39;20.60;99.90
44509;DHT22;30214;52.246;14.408;2022-09-13T12:41:29;20.70;99.90
44509;DHT22;30214;52.246;14.408;2022-09-13T12:44:32;20.80;99.90
44509;DHT22;30214;52.246;14.408;2022-09-13T12:47:19;20.80;99.90
44509;DHT22;30214;52.246;14.408;2022-09-13T12:50:12;20.80;99.90
44509;DHT22;30214;52.246;14.408;2022-09-13T12:52:54;20.70;99.90
44509;DHT22;30214;52.246;14.408;2022-09-13T12:58:42;20.50;99.90
44509;DHT22;30214;52.246;14.408;2022-09-13T13:01:22;20.40;99.90
44509;DHT22;30214;52.246;14.408;2022-09-13T13:03:52;20.30;99.90
44509;DHT22;30214;52.246;14.408;2022-09-13T13:06:29;20.30;99.90
44509;DHT22;30214;52.246;14.408;2022-09-13T13:09:01;20.40;99.90
44509;DHT22;30214;52.246;14.408;2022-09-13T13:11:43;20.40;99.90
44509;DHT22;30214;52.246;14.408;2022-09-13T13:14:30;20.30;99.90
44509;DHT22;30214;52.246;14.408;2022-09-13T13:20:47;20.00;99.90
44509;DHT22;30214;52.246;14.408;2022-09-13T13:23:32;20.00;99.90
44509;DHT22;30214;52.246;14.408;2022-09-13T13:26:09;20.10;99.90
44509;DHT22;30214;52.246;14.408;2022-09-13T13:28:51;20.10;99.90
44509;DHT22;30214;52.246;14.408;2022-09-13T13:31:39;20.00;99.90
44509;DHT22;30214;52.246;14.408;2022-09-13T13:34:29;20.10;99.90
44509;DHT22;30214;52.246;14.408;2022-09-13T13:37:03;20.10;99.90
44509;DHT22;30214;52.246;14.408;2022-09-13T13:39:34;20.10;99.90
44509;DHT22;30214;52.246;14.408;2022-09-13T13:42:23;20.10;99.90
44509;DHT22;30214;52.246;14.408;2022-09-13T13:45:32;20.00;99.90
44509;DHT22;30214;52.246;14.408;2022-09-13T13:48:23;20.00;99.90
44509;DHT22;30214;52.246;14.408;2022-09-13T13:51:28;20.00;99.90
44509;DHT22;30214;52.246;14.408;2022-09-13T13:54:00;20.20;99.90
44509;DHT22;30214;52.246;14.408;2022-09-13T13:56:44;20.20;99.90
44509;DHT22;30214;52.246;14.408;2022-09-13T13:59:21;20.30;99.90
44509;DHT22;30214;52.246;14.408;2022-09-13T14:01:55;20.30;99.90
44509;DHT22;30214;52.246;14.408;2022-09-13T14:08:06;20.30;99.90
44509;DHT22;30214;52.246;14.408;2022-09-13T14:10:52;20.20;99.90
44509;DHT22;30214;52.246;14.408;2022-09-13T14:13:39;20.20;99.90
44509;DHT22;30214;52.246;14.408;2022-09-13T14:16:19;20.20;99.90
44509;DHT22;30214;52.246;14.408;2022-09-13T14:22:12;20.10;99.90
44509;DHT22;30214;52.246;14.408;2022-09-13T14:24:43;20.10;99.90
44509;DHT22;30214;52.246;14.408;2022-09-13T14:27:15;20.10;99.90
44509;DHT22;30214;52.246;14.408;2022-09-13T14:29:46;20.10;99.90
44509;DHT22;30214;52.246;14.408;2022-09-13T14:32:17;20.20;99.90
44509;DHT22;30214;52.246;14.408;2022-09-13T14:37:25;20.40;99.90
44509;DHT22;30214;52.246;14.408;2022-09-13T14:39:59;20.60;99.90
44509;DHT22;30214;52.246;14.408;2022-09-13T14:42:37;20.60;99.90
44509;DHT22;30214;52.246;14.408;2022-09-13T14:45:12;20.60;99.90
44509;DHT22;30214;52.246;14.408;2022-09-13T14:47:48;20.50;99.90
44509;DHT22;30214;52.246;14.408;2022-09-13T14:50:22;20.40;99.90
44509;DHT22;30214;52.246;14.408;2022-09-13T14:52:53;20.40;99.90
44509;DHT22;30214;52.246;14.408;2022-09-13T14:55:26;20.50;99.90
44509;DHT22;30214;52.246;14.408;2022-09-13T14:57:59;20.60;99.90
44509;DHT22;30214;52.246;14.408;2022-09-13T15:00:34;20.60;99.90
44509;DHT22;30214;52.246;14.408;2022-09-13T15:03:13;20.60;99.90
44509;DHT22;30214;52.246;14.408;2022-09-13T15:05:50;20.50;99.90
44509;DHT22;30214;52.246;14.408;2022-09-13T15:08:37;20.40;99.90
44509;DHT22;30214;52.246;14.408;2022-09-13T15:11:14;20.30;99.90
44509;DHT22;30214;52.246;14.408;2022-09-13T15:13:43;20.20;99.90
44509;DHT22;30214;52.246;14.408;2022-09-13T15:16:27;20.10;99.90
44509;DHT22;30214;52.246;14.408;2022-09-13T15:19:16;20.00;99.90
44509;DHT22;30214;52.246;14.408;2022-09-13T15:21:52;20.10;99.90
44509;DHT22;30214;52.246;14.408;2022-09-13T15:24:26;20.20;99.90
44509;DHT22;30214;52.246;14.408;2022-09-13T15:27:06;20.40;99.90
44509;DHT22;30214;52.246;14.408;2022-09-13T15:29:47;20.40;99.90
44509;DHT22;30214;52.246;14.408;2022-09-13T15:32:21;20.50;99.90
44509;DHT22;30214;52.246;14.408;2022-09-13T15:34:49;20.50;99.90
44509;DHT22;30214;52.246;14.408;2022-09-13T15:37:17;20.50;99.90
44509;DHT22;30214;52.246;14.408;2022-09-13T15:40:12;20.50;99.90
44509;DHT22;30214;52.246;14.408;2022-09-13T15:42:45;20.60;99.90
44509;DHT22;30214;52.246;14.408;2022-09-13T15:45:13;20.60;99.90
44509;DHT22;30214;52.246;14.408;2022-09-13T15:47:44;20.60;99.90
44509;DHT22;30214;52.246;14.408;2022-09-13T15:50:21;20.50;99.90
44509;DHT22;30214;52.246;14.408;2022-09-13T15:52:51;20.40;99.90
44509;DHT22;30214;52.246;14.408;2022-09-13T15:55:20;20.40;99.90
44509;DHT22;30214;52.246;14.408;2022-09-13T15:57:48;20.40;99.90
44509;DHT22;30214;52.246;14.408;2022-09-13T16:00:18;20.40;99.90
44509;DHT22;30214;52.246;14.408;2022-09-13T16:02:48;20.40;99.90
44509;DHT22;30214;52.246;14.408;2022-09-13T16:05:16;20.50;99.90
44509;DHT22;30214;52.246;14.408;2022-09-13T16:07:43;20.50;99.90
44509;DHT22;30214;52.246;14.408;2022-09-13T16:10:14;20.50;99.90
44509;DHT22;30214;52.246;14.408;2022-09-13T16:12:44;20.50;99.90
44509;DHT22;30214;52.246;14.408;2022-09-13T16:15:11;20.50;99.90
44509;DHT22;30214;52.246;14.408;2022-09-13T16:17:39;20.40;99.90
44509;DHT22;30214;52.246;14.408;2022-09-13T16:20:09;20.40;99.90
44509;DHT22;30214;52.246;14.408;2022-09-13T16:22:39;20.40;99.90
44509;DHT22;30214;52.246;14.408;2022-09-13T16:25:06;20.30;99.90
44509;DHT22;30214;52.246;14.408;2022-09-13T16:27:34;20.20;99.90
44509;DHT22;30214;52.246;14.408;2022-09-13T16:30:03;20.10;99.90
44509;DHT22;30214;52.246;14.408;2022-09-13T16:32:31;20.00;99.90
44509;DHT22;30214;52.246;14.408;2022-09-13T16:35:01;20.00;99.90